Terminal Aerodrome Forecast
Issued by NWS St Louis, MO

Home | Current Version | Previous Version | Graphics & Text | Print | Product List | Glossary On
Versions: 1 2 3 4 5 6 7 8 9 10 11 12 13 14 15 16 17 18 19 20 21 22 23 24 25 26 27 28
000
FTUS43 KLSX 171333 AAA
TAFSTL
TAF AMD
KSTL 171333Z 1714/1818 13012KT 5SM BR BKN008
      TEMPO 1714/1715 -DZ SCT008 OVC020
     FM171500 14012G20KT P6SM OVC015
     FM171800 16015G25KT P6SM OVC020
     FM180200 17012G20KT P6SM OVC015
     FM180400 18011G19KT P6SM VCTS OVC020CB
     FM181000 20010G18KT P6SM -SHRA OVC020
     FM181400 27017G27KT 5SM -SHRA OVC030=

USA.gov is the U.S. government's official web portal to all federal, state and local government web resources and services.